createdAt,value
2022-08-26T00:02:30.747Z,25.71
2022-08-26T00:07:32.424Z,25.66
2022-08-26T00:12:35.968Z,25.60
2022-08-26T00:17:40.343Z,25.54
2022-08-26T00:22:43.363Z,25.48
2022-08-26T00:27:45.982Z,25.45
2022-08-26T00:32:48.814Z,25.40
2022-08-26T00:37:51.330Z,25.37
2022-08-26T00:42:53.450Z,25.34
2022-08-26T00:48:03.810Z,25.30
2022-08-26T00:53:24.130Z,25.24
2022-08-26T00:58:31.597Z,25.18
2022-08-26T01:03:34.776Z,25.14
2022-08-26T01:08:36.801Z,25.06
2022-08-26T01:13:40.399Z,25.01
2022-08-26T01:18:44.089Z,24.97
2022-08-26T01:23:49.668Z,24.88
2022-08-26T01:28:55.275Z,24.84
2022-08-26T01:34:17.787Z,24.79
2022-08-26T01:39:21.359Z,24.76
2022-08-26T01:44:27.851Z,24.72
2022-08-26T01:49:29.882Z,24.68
2022-08-26T01:54:34.141Z,24.65
2022-08-26T01:59:35.774Z,24.66
2022-08-26T02:04:43.689Z,24.65
2022-08-26T02:09:45.354Z,24.63
2022-08-26T02:14:53.831Z,24.61
2022-08-26T02:19:56.286Z,24.61
2022-08-26T02:25:07.099Z,24.60
2022-08-26T02:30:21.611Z,24.59
2022-08-26T02:35:23.975Z,24.57
2022-08-26T02:40:31.115Z,24.57
2022-08-26T02:45:33.397Z,24.55
2022-08-26T02:50:35.426Z,24.53
2022-08-26T02:55:37.046Z,24.51
2022-08-26T03:00:52.491Z,24.47
2022-08-26T03:05:55.136Z,24.43
2022-08-26T03:10:56.922Z,24.40
2022-08-26T03:16:01.592Z,24.37
2022-08-26T03:21:15.517Z,24.31
2022-08-26T03:26:17.255Z,24.28
2022-08-26T03:31:18.918Z,24.27
2022-08-26T03:36:27.187Z,24.26
2022-08-26T03:41:29.115Z,24.25
2022-08-26T03:46:35.804Z,24.23
2022-08-26T03:51:39.641Z,24.22
2022-08-26T03:56:43.801Z,24.22
2022-08-26T04:01:48.404Z,24.16
2022-08-26T04:06:50.567Z,24.13
2022-08-26T04:11:52.219Z,24.10
2022-08-26T04:16:56.527Z,24.09
2022-08-26T04:21:59.312Z,24.09
2022-08-26T04:27:03.519Z,24.08
2022-08-26T04:32:06.661Z,24.08
2022-08-26T04:37:09.225Z,24.07
2022-08-26T04:42:10.894Z,24.02
2022-08-26T04:47:12.660Z,23.98
2022-08-26T04:52:14.248Z,23.95
2022-08-26T04:57:18.003Z,23.91
2022-08-26T05:02:19.744Z,23.87
2022-08-26T05:07:21.400Z,23.82
2022-08-26T05:12:23.401Z,23.80
2022-08-26T05:17:27.249Z,23.78
2022-08-26T05:22:28.978Z,23.77
2022-08-26T05:27:30.738Z,23.76
2022-08-26T05:32:34.489Z,23.76
2022-08-26T05:37:38.473Z,23.78
2022-08-26T05:42:40.527Z,23.79
2022-08-26T05:47:42.847Z,23.82
2022-08-26T05:52:44.655Z,23.85
2022-08-26T05:57:46.271Z,23.89
2022-08-26T06:02:49.816Z,23.92
2022-08-26T06:08:11.306Z,23.97
2022-08-26T06:13:14.104Z,24.02
2022-08-26T06:18:19.588Z,24.08
2022-08-26T06:23:40.449Z,24.14
2022-08-26T06:28:45.498Z,24.20
2022-08-26T06:33:47.377Z,24.28
2022-08-26T06:38:50.691Z,24.37
2022-08-26T06:43:52.857Z,24.43
2022-08-26T06:48:55.582Z,24.52
2022-08-26T06:54:00.144Z,24.60
2022-08-26T06:59:02.265Z,24.70
2022-08-26T07:04:10.350Z,24.79
2022-08-26T07:09:12.336Z,24.91
2022-08-26T07:14:16.306Z,25.01
2022-08-26T07:19:30.526Z,25.12
2022-08-26T07:24:36.229Z,25.23
2022-08-26T07:29:39.599Z,25.34
2022-08-26T07:34:42.209Z,25.42
2022-08-26T07:39:44.454Z,25.51
2022-08-26T07:44:46.217Z,25.56
2022-08-26T07:49:47.881Z,25.62
2022-08-26T07:54:59.356Z,25.67
2022-08-26T08:00:01.395Z,25.73
2022-08-26T08:05:03.629Z,25.82
2022-08-26T08:10:11.327Z,25.91
2022-08-26T08:15:13.893Z,26.04
2022-08-26T08:20:15.579Z,26.17
2022-08-26T08:25:17.673Z,26.30
2022-08-26T08:30:23.026Z,26.43
2022-08-26T08:35:26.471Z,26.58
2022-08-26T08:40:28.298Z,26.70
2022-08-26T08:45:38.219Z,26.82
2022-08-26T08:50:44.829Z,26.96
2022-08-26T08:56:02.232Z,27.05
2022-08-26T09:01:09.720Z,27.07
2022-08-26T09:06:17.429Z,27.13
2022-08-26T09:11:20.911Z,27.17
2022-08-26T09:16:56.649Z,27.23
2022-08-26T09:22:01.584Z,27.37
2022-08-26T09:27:04.020Z,27.57
2022-08-26T09:32:21.915Z,27.81
2022-08-26T09:37:53.034Z,28.04
2022-08-26T09:43:22.249Z,28.22
2022-08-26T09:48:36.644Z,28.21
2022-08-26T09:53:52.777Z,28.19
2022-08-26T09:58:57.060Z,28.20
2022-08-26T10:04:14.034Z,28.21
2022-08-26T10:09:18.344Z,28.23
2022-08-26T10:14:24.996Z,28.28
2022-08-26T10:19:56.275Z,28.29
2022-08-26T10:25:03.843Z,28.36
2022-08-26T10:30:11.284Z,28.42
2022-08-26T10:35:14.901Z,28.47
2022-08-26T10:40:25.869Z,28.50
2022-08-26T10:45:33.138Z,28.50
2022-08-26T10:50:47.428Z,28.41
2022-08-26T10:56:18.802Z,28.26
2022-08-26T11:01:43.218Z,28.03
2022-08-26T11:06:46.143Z,27.83
2022-08-26T11:11:49.699Z,27.66
2022-08-26T11:16:54.111Z,27.53
2022-08-26T11:22:06.115Z,27.42
2022-08-26T11:27:12.624Z,27.34
2022-08-26T11:32:34.248Z,27.23
2022-08-26T11:37:42.509Z,27.13
2022-08-26T11:42:55.529Z,27.04
2022-08-26T11:47:57.404Z,26.98
2022-08-26T11:53:06.378Z,26.92
2022-08-26T11:58:13.090Z,26.89
2022-08-26T12:03:19.473Z,26.83
2022-08-26T12:08:28.129Z,26.81
2022-08-26T12:13:29.790Z,26.80
2022-08-26T12:18:36.065Z,26.79
2022-08-26T12:23:49.958Z,26.78
2022-08-26T12:28:59.550Z,26.76
2022-08-26T12:34:04.924Z,26.75
2022-08-26T12:39:35.403Z,26.72
2022-08-26T12:44:53.293Z,26.69
2022-08-26T12:50:03.789Z,26.68
2022-08-26T12:55:18.227Z,26.64
2022-08-26T13:00:34.867Z,26.61
2022-08-26T13:05:37.957Z,26.56
2022-08-26T13:10:42.690Z,26.53
2022-08-26T13:15:44.712Z,26.51
2022-08-26T13:20:46.567Z,26.48
2022-08-26T13:25:48.388Z,26.44
2022-08-26T13:30:50.239Z,26.39
2022-08-26T13:35:52.506Z,26.34
2022-08-26T13:40:54.192Z,26.31
2022-08-26T13:45:56.858Z,26.27
2022-08-26T13:50:58.838Z,26.22
2022-08-26T13:56:01.986Z,26.19
2022-08-26T14:01:07.290Z,26.16
2022-08-26T14:06:10.017Z,26.13
2022-08-26T14:11:12.144Z,26.10
2022-08-26T14:16:22.825Z,26.09
2022-08-26T14:21:25.438Z,26.07
2022-08-26T14:26:28.840Z,26.06
2022-08-26T14:31:33.190Z,26.05
2022-08-26T14:36:35.801Z,26.06
2022-08-26T14:41:54.015Z,26.05
2022-08-26T14:46:57.097Z,26.07
2022-08-26T14:51:58.790Z,26.08
2022-08-26T14:57:03.877Z,26.07
2022-08-26T15:02:07.443Z,26.07
2022-08-26T15:07:12.730Z,26.09
2022-08-26T15:12:14.625Z,26.10
2022-08-26T15:17:16.214Z,26.13
2022-08-26T15:22:18.226Z,26.18
2022-08-26T15:27:19.829Z,26.23
2022-08-26T15:32:21.823Z,26.31
2022-08-26T15:37:23.883Z,26.37
2022-08-26T15:42:25.527Z,26.44
2022-08-26T15:47:27.154Z,26.53
2022-08-26T15:52:30.147Z,26.61
2022-08-26T15:57:32.233Z,26.66
2022-08-26T16:02:35.113Z,26.66
2022-08-26T16:07:37.125Z,26.53
2022-08-26T16:12:38.754Z,26.50
2022-08-26T16:17:40.784Z,26.50
2022-08-26T16:22:42.945Z,26.50
2022-08-26T16:27:44.541Z,26.50
2022-08-26T16:32:47.253Z,26.51
2022-08-26T16:37:49.052Z,26.45
2022-08-26T16:42:54.936Z,26.40
2022-08-26T16:47:56.726Z,26.33
2022-08-26T16:52:58.554Z,26.30
2022-08-26T16:58:00.198Z,26.25
2022-08-26T17:03:01.992Z,26.23
2022-08-26T17:08:04.914Z,26.23
2022-08-26T17:13:06.679Z,26.22
2022-08-26T17:18:09.078Z,26.13
2022-08-26T17:23:10.833Z,25.91
2022-08-26T17:28:13.503Z,25.74
2022-08-26T17:33:15.380Z,25.65
2022-08-26T17:38:22.317Z,25.59
2022-08-26T17:43:26.856Z,25.57
2022-08-26T17:48:28.876Z,25.55
2022-08-26T17:53:30.437Z,25.46
2022-08-26T17:58:32.201Z,25.38
2022-08-26T18:03:36.458Z,25.34
2022-08-26T18:08:39.469Z,25.36
2022-08-26T18:13:45.845Z,25.37
2022-08-26T18:18:53.630Z,25.38
2022-08-26T18:23:56.363Z,25.38
2022-08-26T18:28:58.448Z,25.39
2022-08-26T18:34:01.627Z,25.39
2022-08-26T18:39:05.969Z,25.38
2022-08-26T18:44:13.286Z,25.37
2022-08-26T18:49:17.572Z,25.34
2022-08-26T18:59:27.000Z,25.29
2022-08-26T19:04:32.291Z,25.26
2022-08-26T19:09:34.516Z,25.18
2022-08-26T19:14:37.726Z,25.12
2022-08-26T19:19:39.355Z,25.08
2022-08-26T19:24:41.171Z,25.03
2022-08-26T19:29:42.793Z,24.96
2022-08-26T19:34:44.544Z,24.81
2022-08-26T19:39:47.420Z,24.65
2022-08-26T19:45:07.608Z,24.59
2022-08-26T19:50:17.844Z,24.56
2022-08-26T19:55:21.014Z,24.54
2022-08-26T20:00:25.280Z,24.52
2022-08-26T20:05:27.254Z,24.52
2022-08-26T20:10:29.077Z,24.48
2022-08-26T20:15:30.691Z,24.48
2022-08-26T20:20:50.873Z,24.46
2022-08-26T20:25:52.624Z,24.44
2022-08-26T20:30:54.237Z,24.43
2022-08-26T20:40:57.560Z,24.40
2022-08-26T20:46:00.259Z,24.38
2022-08-26T20:51:02.141Z,24.32
2022-08-26T20:56:07.275Z,24.28
2022-08-26T21:01:20.858Z,24.25
2022-08-26T21:06:23.700Z,24.22
2022-08-26T21:11:26.345Z,24.20
2022-08-26T21:16:28.443Z,24.17
2022-08-26T21:21:30.255Z,24.12
2022-08-26T21:26:32.727Z,24.06
2022-08-26T21:31:35.037Z,24.01
2022-08-26T21:36:36.753Z,23.94
2022-08-26T21:41:39.158Z,23.92
2022-08-26T21:46:42.018Z,23.90
2022-08-26T21:51:46.582Z,23.88
2022-08-26T21:56:48.277Z,23.74
2022-08-26T22:01:50.033Z,23.58
2022-08-26T22:06:54.755Z,23.47
2022-08-26T22:11:56.947Z,23.32
2022-08-26T22:16:59.018Z,23.15
2022-08-26T22:22:00.975Z,23.03
2022-08-26T22:27:02.831Z,22.92
2022-08-26T22:32:04.738Z,22.86
2022-08-26T22:37:06.537Z,22.82
2022-08-26T22:42:08.177Z,22.82
2022-08-26T22:47:09.905Z,22.84
2022-08-26T22:52:11.625Z,22.86
2022-08-26T22:57:13.262Z,22.89
2022-08-26T23:02:15.364Z,22.93
2022-08-26T23:07:16.954Z,22.94
2022-08-26T23:12:18.547Z,22.96
2022-08-26T23:17:21.415Z,22.98
2022-08-26T23:22:23.008Z,22.99
2022-08-26T23:27:24.619Z,22.99
2022-08-26T23:32:26.348Z,22.99
2022-08-26T23:37:31.965Z,22.90
2022-08-26T23:42:36.165Z,22.84
2022-08-26T23:47:37.821Z,22.74
2022-08-26T23:52:57.906Z,22.69
2022-08-26T23:57:59.782Z,22.70
